createdAt,value
2022-10-09T00:02:16.614Z,102650.31
2022-10-09T00:04:43.514Z,102645.94
2022-10-09T00:07:10.352Z,102652.09
2022-10-09T00:09:37.467Z,102646.88
2022-10-09T00:12:04.380Z,102646.88
2022-10-09T00:14:31.261Z,102642.47
2022-10-09T00:16:59.482Z,102639.69
2022-10-09T00:19:26.769Z,102643.34
2022-10-09T00:21:53.578Z,102648.63
2022-10-09T00:24:20.506Z,102639.13
2022-10-09T00:26:47.685Z,102647.88
2022-10-09T00:29:14.502Z,102650.59
2022-10-09T00:31:41.271Z,102648.84
2022-10-09T00:34:09.595Z,102642.75
2022-10-09T00:36:36.372Z,102650.59
2022-10-09T00:39:03.262Z,102652.34
2022-10-09T00:41:31.469Z,102644.59
2022-10-09T00:44:01.183Z,102635.84
2022-10-09T00:46:31.352Z,102641.16
2022-10-09T00:49:05.742Z,102638.50
2022-10-09T00:51:34.835Z,102640.34
2022-10-09T00:54:04.676Z,102645.63
2022-10-09T00:56:31.568Z,102636.88
2022-10-09T00:58:59.798Z,102635.13
2022-10-09T01:01:27.354Z,102635.94
2022-10-09T01:03:55.033Z,102642.16
2022-10-09T01:06:33.341Z,102630.72
2022-10-09T01:09:07.393Z,102632.59
2022-10-09T01:11:41.498Z,102647.50
2022-10-09T01:14:17.355Z,102636.06
2022-10-09T01:16:50.463Z,102630.00
2022-10-09T01:19:35.677Z,102632.66
2022-10-09T01:22:13.533Z,102636.19
2022-10-09T01:24:48.110Z,102638.00
2022-10-09T01:27:19.973Z,102639.78
2022-10-09T01:29:51.736Z,102635.44
2022-10-09T01:32:23.308Z,102628.34
2022-10-09T01:34:51.530Z,102628.31
2022-10-09T01:37:20.581Z,102632.78
2022-10-09T01:39:48.918Z,102625.69
2022-10-09T01:42:21.099Z,102623.03
2022-10-09T01:44:47.954Z,102623.03
2022-10-09T01:47:16.631Z,102619.56
2022-10-09T01:49:51.823Z,102628.34
2022-10-09T01:52:37.112Z,102618.81
2022-10-09T01:55:16.510Z,102620.56
2022-10-09T01:57:50.940Z,102617.03
2022-10-09T02:00:18.376Z,102619.63
2022-10-09T02:02:47.228Z,102615.94
2022-10-09T02:05:19.414Z,102611.44
2022-10-09T02:07:46.215Z,102614.06
2022-10-09T02:10:15.036Z,102606.06
2022-10-09T02:12:46.979Z,102602.53
2022-10-09T02:15:14.433Z,102605.16
2022-10-09T02:17:45.952Z,102598.19
2022-10-09T02:20:19.161Z,102605.25
2022-10-09T02:22:46.937Z,102603.50
2022-10-09T02:25:14.957Z,102593.09
2022-10-09T02:27:41.906Z,102598.44
2022-10-09T02:30:11.622Z,102596.63
2022-10-09T02:32:39.226Z,102592.22
2022-10-09T02:35:06.719Z,102596.69
2022-10-09T02:37:33.599Z,102592.28
2022-10-09T02:40:00.488Z,102593.16
2022-10-09T02:42:27.305Z,102591.47
2022-10-09T02:44:54.138Z,102588.78
2022-10-09T02:47:22.383Z,102590.53
2022-10-09T02:49:49.325Z,102584.28
2022-10-09T02:52:16.101Z,102591.41
2022-10-09T02:54:43.031Z,102585.22
2022-10-09T02:57:09.823Z,102580.66
2022-10-09T02:59:36.601Z,102584.03
2022-10-09T03:02:03.518Z,102579.59
2022-10-09T03:04:31.781Z,102583.16
2022-10-09T03:06:59.355Z,102574.41
2022-10-09T03:09:29.223Z,102581.53
2022-10-09T03:11:59.755Z,102569.13
2022-10-09T03:14:26.651Z,102576.19
2022-10-09T03:16:53.554Z,102575.31
2022-10-09T03:19:20.350Z,102575.31
2022-10-09T03:21:48.487Z,102574.50
2022-10-09T03:24:15.328Z,102569.13
2022-10-09T03:26:42.091Z,102567.09
2022-10-09T03:29:08.943Z,102573.19
2022-10-09T03:31:52.785Z,102571.44
2022-10-09T03:34:20.620Z,102572.50
2022-10-09T03:36:48.790Z,102580.34
2022-10-09T03:39:15.771Z,102569.94
2022-10-09T03:41:42.659Z,102576.19
2022-10-09T03:44:09.382Z,102568.59
2022-10-09T03:46:36.300Z,102568.59
2022-10-09T03:49:03.203Z,102567.97
2022-10-09T03:51:30.019Z,102567.09
2022-10-09T03:53:58.448Z,102571.63
2022-10-09T03:56:25.217Z,102569.09
2022-10-09T03:58:52.082Z,102564.03
2022-10-09T04:01:19.037Z,102567.59
2022-10-09T04:03:46.035Z,102576.34
2022-10-09T04:06:13.033Z,102577.50
2022-10-09T04:08:39.811Z,102564.16
2022-10-09T04:11:08.031Z,102567.44
2022-10-09T04:13:34.894Z,102571.66
2022-10-09T04:16:01.935Z,102569.91
2022-10-09T04:18:28.821Z,102569.91
2022-10-09T04:20:57.146Z,102562.03
2022-10-09T04:23:25.673Z,102560.13
2022-10-09T04:25:54.110Z,102556.50
2022-10-09T04:28:23.676Z,102557.56
2022-10-09T04:30:50.645Z,102563.81
2022-10-09T04:33:17.481Z,102557.81
2022-10-09T04:35:44.875Z,102555.97
2022-10-09T04:38:12.216Z,102552.41
2022-10-09T04:40:38.984Z,102547.97
2022-10-09T04:43:06.079Z,102560.22
2022-10-09T04:45:38.768Z,102545.44
2022-10-09T04:48:05.679Z,102548.06
2022-10-09T04:50:32.467Z,102546.41
2022-10-09T04:52:59.261Z,102555.34
2022-10-09T04:55:26.052Z,102550.16
2022-10-09T04:57:52.839Z,102550.22
2022-10-09T05:00:19.982Z,102549.31
2022-10-09T05:02:48.453Z,102544.78
2022-10-09T05:05:15.672Z,102542.03
2022-10-09T05:07:42.457Z,102544.53
2022-10-09T05:10:09.538Z,102533.91
2022-10-09T05:12:36.233Z,102535.56
2022-10-09T05:15:03.219Z,102542.63
2022-10-09T05:17:30.075Z,102542.59
2022-10-09T05:19:58.327Z,102539.00
2022-10-09T05:22:25.062Z,102532.91
2022-10-09T05:24:51.904Z,102546.88
2022-10-09T05:27:18.700Z,102550.06
2022-10-09T05:29:45.519Z,102544.78
2022-10-09T05:32:12.353Z,102550.63
2022-10-09T05:34:39.150Z,102554.97
2022-10-09T05:37:07.360Z,102552.19
2022-10-09T05:39:36.025Z,102554.06
2022-10-09T05:42:03.050Z,102544.47
2022-10-09T05:44:30.012Z,102556.78
2022-10-09T05:46:56.833Z,102553.81
2022-10-09T05:49:23.754Z,102558.81
2022-10-09T05:51:50.710Z,102558.94
2022-10-09T05:54:20.077Z,102559.91
2022-10-09T05:56:47.032Z,102550.38
2022-10-09T05:59:15.869Z,102549.84
2022-10-09T06:01:44.551Z,102554.88
2022-10-09T06:04:14.690Z,102554.34
2022-10-09T06:06:41.983Z,102550.84
2022-10-09T06:09:10.483Z,102550.69
2022-10-09T06:11:40.126Z,102551.34
2022-10-09T06:14:08.112Z,102550.28
2022-10-09T06:16:36.836Z,102544.19
2022-10-09T06:19:04.899Z,102539.88
2022-10-09T06:21:32.482Z,102544.22
2022-10-09T06:24:01.737Z,102548.44
2022-10-09T06:26:29.658Z,102555.31
2022-10-09T06:28:59.692Z,102553.19
2022-10-09T06:31:28.405Z,102549.38
2022-10-09T06:33:55.579Z,102554.31
2022-10-09T06:36:23.810Z,102545.28
2022-10-09T06:38:53.254Z,102549.31
2022-10-09T06:41:22.042Z,102543.13
2022-10-09T06:43:50.722Z,102548.41
2022-10-09T06:46:20.751Z,102551.78
2022-10-09T06:48:47.878Z,102546.09
2022-10-09T06:51:17.472Z,102552.84
2022-10-09T06:53:46.925Z,102548.13
2022-10-09T06:56:14.459Z,102558.41
2022-10-09T06:58:41.665Z,102553.81
2022-10-09T07:01:10.668Z,102556.13
2022-10-09T07:03:41.072Z,102550.75
2022-10-09T07:06:10.039Z,102553.09
2022-10-09T07:08:37.186Z,102556.41
2022-10-09T07:11:11.870Z,102549.41
2022-10-09T07:13:39.141Z,102546.56
2022-10-09T07:16:07.145Z,102551.22
2022-10-09T07:18:34.705Z,102554.28
2022-10-09T07:21:05.364Z,102552.28
2022-10-09T07:23:33.064Z,102551.97
2022-10-09T07:26:01.769Z,102554.16
2022-10-09T07:28:30.073Z,102557.34
2022-10-09T07:30:57.333Z,102557.84
2022-10-09T07:33:24.850Z,102556.63
2022-10-09T07:35:54.929Z,102562.19
2022-10-09T07:38:24.583Z,102562.47
2022-10-09T07:40:51.995Z,102568.97
2022-10-09T07:43:18.885Z,102556.78
2022-10-09T07:45:46.088Z,102560.72
2022-10-09T07:48:13.334Z,102560.13
2022-10-09T07:50:40.269Z,102557.72
2022-10-09T07:53:08.890Z,102554.06
2022-10-09T07:55:37.184Z,102556.06
2022-10-09T07:58:04.045Z,102564.34
2022-10-09T08:00:30.844Z,102554.38
2022-10-09T08:02:57.658Z,102556.31
2022-10-09T08:05:24.516Z,102557.78
2022-10-09T08:07:51.662Z,102561.88
2022-10-09T08:10:18.494Z,102561.31
2022-10-09T08:12:46.937Z,102567.50
2022-10-09T08:15:14.135Z,102567.16
2022-10-09T08:17:40.963Z,102564.16
2022-10-09T08:20:11.678Z,102567.56
2022-10-09T08:22:38.485Z,102562.09
2022-10-09T08:25:06.398Z,102550.09
2022-10-09T08:27:33.449Z,102548.88
2022-10-09T08:30:01.956Z,102547.75
2022-10-09T08:32:28.981Z,102555.25
2022-10-09T08:34:55.967Z,102555.06
2022-10-09T08:37:22.931Z,102554.03
2022-10-09T08:39:49.813Z,102550.31
2022-10-09T08:42:29.030Z,102550.94
2022-10-09T08:45:05.008Z,102547.34
2022-10-09T08:47:38.773Z,102544.19
2022-10-09T08:50:11.695Z,102541.06
2022-10-09T08:52:49.803Z,102544.44
2022-10-09T08:55:22.931Z,102541.63
2022-10-09T08:57:52.270Z,102540.44
2022-10-09T09:00:22.663Z,102541.00
2022-10-09T09:03:29.859Z,102532.84
2022-10-09T09:06:05.441Z,102541.31
2022-10-09T09:08:39.281Z,102530.97
2022-10-09T09:11:21.453Z,102529.25
2022-10-09T09:13:59.912Z,102530.66
2022-10-09T09:16:39.682Z,102529.38
2022-10-09T09:19:22.030Z,102520.59
2022-10-09T09:21:51.712Z,102528.16
2022-10-09T09:24:20.682Z,102518.84
2022-10-09T09:26:53.615Z,102515.31
2022-10-09T09:29:23.734Z,102516.81
2022-10-09T09:31:57.351Z,102508.25
2022-10-09T09:34:28.519Z,102514.88
2022-10-09T09:36:59.057Z,102513.78
2022-10-09T09:42:18.215Z,102501.84
2022-10-09T09:44:57.776Z,102506.03
2022-10-09T09:47:32.917Z,102505.63
2022-10-09T09:50:01.738Z,102498.03
2022-10-09T09:52:34.265Z,102495.91
2022-10-09T09:55:01.202Z,102499.97
2022-10-09T09:57:33.118Z,102494.84
2022-10-09T10:00:20.184Z,102496.88
2022-10-09T10:02:49.093Z,102498.50
2022-10-09T10:05:20.869Z,102480.91
2022-10-09T10:07:50.183Z,102484.31
2022-10-09T10:10:24.195Z,102487.94
2022-10-09T10:12:57.693Z,102486.97
2022-10-09T10:15:26.736Z,102486.13
2022-10-09T10:18:03.869Z,102474.50
2022-10-09T10:20:32.599Z,102479.78
2022-10-09T10:23:01.235Z,102483.19
2022-10-09T10:25:33.640Z,102472.22
2022-10-09T10:28:04.428Z,102472.00
2022-10-09T10:30:32.995Z,102467.22
2022-10-09T10:33:07.960Z,102468.25
2022-10-09T10:35:38.578Z,102462.69
2022-10-09T10:38:13.307Z,102456.72
2022-10-09T10:40:45.217Z,102467.09
2022-10-09T10:43:24.582Z,102458.88
2022-10-09T10:46:02.982Z,102444.09
2022-10-09T10:48:33.873Z,102444.00
2022-10-09T10:51:16.482Z,102437.94
2022-10-09T10:53:55.715Z,102440.84
2022-10-09T10:56:29.965Z,102447.53
2022-10-09T10:59:14.045Z,102428.63
2022-10-09T11:01:48.748Z,102445.69
2022-10-09T11:04:42.467Z,102420.94
2022-10-09T11:07:20.090Z,102421.94
2022-10-09T11:09:56.699Z,102426.44
2022-10-09T11:12:57.755Z,102415.28
2022-10-09T11:15:34.317Z,102412.81
2022-10-09T11:18:14.641Z,102413.69
2022-10-09T11:21:21.785Z,102410.06
2022-10-09T11:24:00.365Z,102405.75
2022-10-09T11:26:36.417Z,102399.19
2022-10-09T11:29:08.921Z,102392.75
2022-10-09T11:31:41.910Z,102388.69
2022-10-09T11:34:16.454Z,102387.63
2022-10-09T11:36:45.613Z,102388.56
2022-10-09T11:39:16.053Z,102374.03
2022-10-09T11:41:46.725Z,102367.47
2022-10-09T11:44:27.709Z,102370.31
2022-10-09T11:47:01.979Z,102374.75
2022-10-09T11:49:35.845Z,102366.25
2022-10-09T11:52:11.497Z,102353.53
2022-10-09T11:54:38.448Z,102351.84
2022-10-09T11:57:06.576Z,102339.50
2022-10-09T11:59:36.490Z,102337.91
2022-10-09T12:02:22.076Z,102338.03
2022-10-09T12:04:56.260Z,102329.97
2022-10-09T12:07:31.009Z,102328.16
2022-10-09T12:10:02.552Z,102327.75
2022-10-09T12:12:29.757Z,102324.88
2022-10-09T12:14:56.740Z,102306.94
2022-10-09T12:17:34.440Z,102304.06
2022-10-09T12:20:07.925Z,102301.59
2022-10-09T12:22:40.570Z,102283.91
2022-10-09T12:25:15.815Z,102288.94
2022-10-09T12:27:42.830Z,102288.06
2022-10-09T12:30:20.978Z,102282.31
2022-10-09T12:32:53.513Z,102267.38
2022-10-09T12:35:24.715Z,102274.56
2022-10-09T12:37:52.993Z,102258.78
2022-10-09T12:40:23.670Z,102254.50
2022-10-09T12:42:53.679Z,102247.97
2022-10-09T12:45:24.160Z,102247.03
2022-10-09T12:47:54.323Z,102244.34
2022-10-09T12:50:25.419Z,102227.16
2022-10-09T12:52:55.509Z,102231.03
2022-10-09T12:55:26.517Z,102217.72
2022-10-09T12:57:56.496Z,102219.00
2022-10-09T13:00:23.502Z,102208.19
2022-10-09T13:02:50.546Z,102198.19
2022-10-09T13:05:18.120Z,102195.19
2022-10-09T13:07:52.648Z,102192.50
2022-10-09T13:10:23.854Z,102179.53
2022-10-09T13:12:53.311Z,102183.59
2022-10-09T13:15:33.466Z,102181.66
2022-10-09T13:18:00.717Z,102183.72
2022-10-09T13:20:29.391Z,102172.22
2022-10-09T13:22:59.056Z,102165.91
2022-10-09T13:25:32.561Z,102166.22
2022-10-09T13:27:59.660Z,102161.69
2022-10-09T13:30:28.463Z,102151.72
2022-10-09T13:32:55.711Z,102148.84
2022-10-09T13:35:22.710Z,102149.59
2022-10-09T13:37:49.755Z,102136.06
2022-10-09T13:40:20.814Z,102136.06
2022-10-09T13:42:52.847Z,102136.19
2022-10-09T13:45:19.933Z,102123.22
2022-10-09T13:47:47.058Z,102123.00
2022-10-09T13:50:15.279Z,102123.09
2022-10-09T13:52:42.254Z,102121.19
2022-10-09T13:55:10.158Z,102112.81
2022-10-09T13:57:37.018Z,102104.97
2022-10-09T14:00:06.991Z,102116.44
2022-10-09T14:02:39.329Z,102109.16
2022-10-09T14:05:06.856Z,102087.31
2022-10-09T14:07:33.702Z,102104.13
2022-10-09T14:10:00.469Z,102090.28
2022-10-09T14:12:27.248Z,102093.41
2022-10-09T14:14:54.139Z,102070.38
2022-10-09T14:17:22.427Z,102086.31
2022-10-09T14:19:49.291Z,102075.72
2022-10-09T14:22:16.352Z,102078.72
2022-10-09T14:24:43.488Z,102067.66
2022-10-09T14:27:10.407Z,102073.56
2022-10-09T14:29:38.705Z,102069.44
2022-10-09T14:32:05.949Z,102066.38
2022-10-09T14:34:34.133Z,102071.28
2022-10-09T14:37:07.357Z,102053.00
2022-10-09T14:39:43.742Z,102029.97
2022-10-09T14:42:10.752Z,102047.31
2022-10-09T14:44:37.688Z,102049.66
2022-10-09T14:47:04.948Z,102046.75
2022-10-09T14:49:31.967Z,102050.19
2022-10-09T14:52:04.813Z,102044.81
2022-10-09T14:54:32.072Z,102041.06
2022-10-09T14:56:58.957Z,102030.25
2022-10-09T14:59:27.826Z,102024.91
2022-10-09T15:01:54.626Z,102019.13
2022-10-09T15:04:21.404Z,102013.28
2022-10-09T15:06:48.147Z,102024.69
2022-10-09T15:09:16.796Z,102024.00
2022-10-09T15:11:43.833Z,102009.31
2022-10-09T15:14:10.959Z,101997.84
2022-10-09T15:16:38.091Z,101968.69
2022-10-09T15:19:05.906Z,101988.75
2022-10-09T15:21:34.342Z,101992.28
2022-10-09T15:24:02.979Z,101974.13
2022-10-09T15:26:33.055Z,101982.72
2022-10-09T15:29:01.589Z,101981.88
2022-10-09T15:31:30.430Z,101983.25
2022-10-09T15:33:58.112Z,101987.22
2022-10-09T15:36:25.258Z,101984.75
2022-10-09T15:38:52.033Z,101975.13
2022-10-09T15:41:25.133Z,101977.03
2022-10-09T15:43:56.121Z,101972.97
2022-10-09T15:46:23.744Z,101963.63
2022-10-09T15:48:50.779Z,101972.28
2022-10-09T15:51:18.407Z,101971.75
2022-10-09T15:53:47.366Z,101966.78
2022-10-09T15:56:16.571Z,101963.44
2022-10-09T15:58:43.781Z,101947.06
2022-10-09T16:01:14.387Z,101944.88
2022-10-09T16:03:41.713Z,101942.63
2022-10-09T16:06:10.450Z,101936.81
2022-10-09T16:08:37.461Z,101937.50
2022-10-09T16:11:06.083Z,101931.91
2022-10-09T16:13:35.326Z,101934.13
2022-10-09T16:16:04.930Z,101934.69
2022-10-09T16:18:33.513Z,101932.06
2022-10-09T16:21:04.796Z,101925.88
2022-10-09T16:23:31.660Z,101923.00
2022-10-09T16:25:59.866Z,101936.06
2022-10-09T16:28:26.988Z,101926.16
2022-10-09T16:30:54.294Z,101918.25
2022-10-09T16:33:22.022Z,101924.44
2022-10-09T16:35:50.463Z,101918.28
2022-10-09T16:38:17.609Z,101917.31
2022-10-09T16:43:33.114Z,101917.69
2022-10-09T16:46:09.214Z,101920.47
2022-10-09T16:48:35.969Z,101924.38
2022-10-09T16:51:07.867Z,101918.88
2022-10-09T16:53:34.821Z,101929.91
2022-10-09T16:56:07.638Z,101918.28
2022-10-09T16:58:34.514Z,101925.69
2022-10-09T17:01:03.936Z,101922.59
2022-10-09T17:03:34.353Z,101928.69
2022-10-09T17:06:01.732Z,101919.91
2022-10-09T17:08:30.600Z,101923.63
2022-10-09T17:10:57.402Z,101919.22
2022-10-09T17:13:24.326Z,101916.06
2022-10-09T17:15:51.408Z,101918.47
2022-10-09T17:18:18.217Z,101918.63
2022-10-09T17:20:45.025Z,101920.50
2022-10-09T17:23:11.810Z,101909.28
2022-10-09T17:25:42.044Z,101922.75
2022-10-09T17:28:09.295Z,101916.56
2022-10-09T17:30:40.110Z,101909.25
2022-10-09T17:33:07.493Z,101914.94
2022-10-09T17:35:39.505Z,101912.78
2022-10-09T17:38:07.261Z,101912.09
2022-10-09T17:40:38.119Z,101908.03
2022-10-09T17:43:06.439Z,101916.59
2022-10-09T17:45:39.249Z,101910.78
2022-10-09T17:48:06.769Z,101911.31
2022-10-09T17:50:33.906Z,101903.97
2022-10-09T17:53:01.144Z,101913.88
2022-10-09T17:55:28.267Z,101909.38
2022-10-09T17:57:55.859Z,101904.91
2022-10-09T18:00:24.479Z,101905.69
2022-10-09T18:02:51.306Z,101908.28
2022-10-09T18:05:18.289Z,101895.44
2022-10-09T18:07:45.073Z,101891.25
2022-10-09T18:10:15.905Z,101887.03
2022-10-09T18:12:43.130Z,101884.03
2022-10-09T18:15:11.008Z,101884.75
2022-10-09T18:17:39.501Z,101883.88
2022-10-09T18:20:07.860Z,101877.78
2022-10-09T18:22:35.918Z,101878.56
2022-10-09T18:25:02.868Z,101875.91
2022-10-09T18:27:30.079Z,101872.47
2022-10-09T18:29:56.834Z,101874.97
2022-10-09T18:32:23.766Z,101872.31
2022-10-09T18:34:52.005Z,101873.41
2022-10-09T18:37:20.139Z,101872.31
2022-10-09T18:39:47.042Z,101869.66
2022-10-09T18:42:13.937Z,101863.56
2022-10-09T18:44:42.983Z,101860.06
2022-10-09T18:47:14.658Z,101852.25
2022-10-09T18:49:45.458Z,101857.56
2022-10-09T18:52:15.125Z,101847.47
2022-10-09T18:54:43.341Z,101849.25
2022-10-09T18:57:10.806Z,101851.00
2022-10-09T18:59:38.782Z,101849.59
2022-10-09T19:02:06.001Z,101847.31
2022-10-09T19:04:32.855Z,101840.44
2022-10-09T19:07:00.206Z,101840.59
2022-10-09T19:09:28.451Z,101835.41
2022-10-09T19:11:55.798Z,101842.88
2022-10-09T19:14:23.114Z,101839.50
2022-10-09T19:16:49.985Z,101836.13
2022-10-09T19:19:16.826Z,101826.59
2022-10-09T19:21:44.323Z,101825.72
2022-10-09T19:24:11.387Z,101831.19
2022-10-09T19:26:40.411Z,101812.66
2022-10-09T19:29:08.354Z,101810.47
2022-10-09T19:31:36.093Z,101812.13
2022-10-09T19:34:04.941Z,101811.19
2022-10-09T19:36:34.289Z,101807.59
2022-10-09T19:39:01.326Z,101809.56
2022-10-09T19:41:28.306Z,101807.13
2022-10-09T19:43:56.581Z,101807.50
2022-10-09T19:46:23.370Z,101801.66
2022-10-09T19:48:50.726Z,101795.13
2022-10-09T19:51:19.605Z,101799.41
2022-10-09T19:53:46.606Z,101800.38
2022-10-09T19:56:15.921Z,101792.78
2022-10-09T19:58:44.782Z,101787.72
2022-10-09T20:01:14.980Z,101785.97
2022-10-09T20:03:42.316Z,101782.47
2022-10-09T20:06:10.739Z,101785.09
2022-10-09T20:08:38.728Z,101780.53
2022-10-09T20:11:07.546Z,101777.09
2022-10-09T20:13:36.506Z,101760.31
2022-10-09T20:16:05.606Z,101762.00
2022-10-09T20:18:34.899Z,101767.31
2022-10-09T20:21:01.801Z,101761.28
2022-10-09T20:23:28.830Z,101758.56
2022-10-09T20:26:00.519Z,101759.44
2022-10-09T20:28:27.550Z,101756.94
2022-10-09T20:30:58.206Z,101750.22
2022-10-09T20:33:25.463Z,101746.69
2022-10-09T20:35:54.043Z,101760.53
2022-10-09T20:38:25.700Z,101754.13
2022-10-09T20:40:53.289Z,101747.81
2022-10-09T20:43:20.198Z,101745.25
2022-10-09T20:45:47.084Z,101739.94
2022-10-09T20:48:14.003Z,101743.38
2022-10-09T20:50:42.043Z,101743.59
2022-10-09T20:53:10.758Z,101731.53
2022-10-09T20:55:37.892Z,101731.69
2022-10-09T20:58:05.178Z,101725.63
2022-10-09T21:00:31.974Z,101725.63
2022-10-09T21:02:58.777Z,101717.81
2022-10-09T21:05:25.630Z,101714.16
2022-10-09T21:07:52.465Z,101711.75
2022-10-09T21:10:20.884Z,101705.00
2022-10-09T21:12:47.794Z,101694.72
2022-10-09T21:15:14.798Z,101692.94
2022-10-09T21:17:41.715Z,101695.50
2022-10-09T21:20:09.296Z,101684.34
2022-10-09T21:22:36.403Z,101675.91
2022-10-09T21:25:03.483Z,101668.72
2022-10-09T21:27:31.661Z,101659.94
2022-10-09T21:29:58.520Z,101660.56
2022-10-09T21:32:25.452Z,101649.81
2022-10-09T21:34:52.263Z,101649.66
2022-10-09T21:37:21.901Z,101651.38
2022-10-09T21:39:49.322Z,101658.97
2022-10-09T21:42:16.135Z,101649.50
2022-10-09T21:44:44.422Z,101646.66
2022-10-09T21:47:17.993Z,101651.66
2022-10-09T21:49:45.433Z,101663.84
2022-10-09T21:52:12.266Z,101657.59
2022-10-09T21:54:39.122Z,101655.16
2022-10-09T21:57:05.918Z,101662.69
2022-10-09T21:59:32.760Z,101661.34
2022-10-09T22:02:00.957Z,101659.25
2022-10-09T22:04:27.782Z,101656.53
2022-10-09T22:06:54.799Z,101657.06
2022-10-09T22:09:21.787Z,101655.78
2022-10-09T22:11:48.541Z,101645.56
2022-10-09T22:14:15.882Z,101643.38
2022-10-09T22:16:42.844Z,101641.47
2022-10-09T22:19:11.084Z,101636.09
2022-10-09T22:21:37.894Z,101642.72
2022-10-09T22:24:04.952Z,101640.75
2022-10-09T22:26:32.033Z,101632.94
2022-10-09T22:28:58.987Z,101631.00
2022-10-09T22:31:27.739Z,101630.13
2022-10-09T22:33:56.450Z,101624.81
2022-10-09T22:36:26.648Z,101621.41
2022-10-09T22:38:54.879Z,101608.44
2022-10-09T22:41:22.331Z,101612.97
2022-10-09T22:43:51.746Z,101609.38
2022-10-09T22:46:21.407Z,101605.63
2022-10-09T22:48:48.000Z,101599.53
2022-10-09T22:51:17.951Z,101602.19
2022-10-09T22:53:46.325Z,101596.00
2022-10-09T22:56:15.571Z,101595.94
2022-10-09T22:58:42.361Z,101591.22
2022-10-09T23:01:13.999Z,101587.41
2022-10-09T23:03:41.068Z,101586.78
2022-10-09T23:06:09.879Z,101592.63
2022-10-09T23:08:38.381Z,101584.22
2022-10-09T23:11:07.139Z,101581.56
2022-10-09T23:13:34.701Z,101581.91
2022-10-09T23:16:02.084Z,101578.34
2022-10-09T23:18:29.295Z,101573.09
2022-10-09T23:20:56.420Z,101555.88
2022-10-09T23:23:23.727Z,101561.78
2022-10-09T23:25:50.619Z,101567.09
2022-10-09T23:28:18.947Z,101561.59
2022-10-09T23:30:45.873Z,101559.03
2022-10-09T23:33:12.841Z,101562.75
2022-10-09T23:35:41.041Z,101551.41
2022-10-09T23:38:08.226Z,101549.94
2022-10-09T23:40:35.328Z,101546.69
2022-10-09T23:43:02.237Z,101536.41
2022-10-09T23:45:30.541Z,101554.03
2022-10-09T23:47:57.397Z,101543.41
2022-10-09T23:50:24.279Z,101553.09
2022-10-09T23:52:51.513Z,101548.81
2022-10-09T23:55:18.788Z,101542.59
2022-10-09T23:57:45.604Z,101542.75
